This is the latest recevied weather packets stored in our database for station/object PA0HHN. If no packets are shown the sender has not sent any weather packets the latest 1 day(s).
| Time | Temp. | Humidity | Pressure | Rain* | Wind** | Luminosity | Snow |
|---|---|---|---|---|---|---|---|
| 1778029200 | 10° C | 87% | 1002.9 hPa | - | 0.45 m/s, 219° | - | - |
| 1778028302 | 10° C | 87% | 1003.2 hPa | - | 0.45 m/s, 260° | - | - |
| 1778027402 | 10° C | 87% | 1003.2 hPa | - | 0 m/s | - | - |
| 1778026500 | 10° C | 87% | 1003.3 hPa | - | 0.45 m/s, 265° | - | - |
| 1778025600 | 10° C | 87% | 1003.4 hPa | - | 0 m/s | - | - |
| 1778024700 | 10° C | 85% | 1003.5 hPa | - | 0.45 m/s, 221° | - | - |
| 1778023802 | 10° C | 84% | 1003.6 hPa | - | 0 m/s | - | - |
| 1778022900 | 10° C | 84% | 1003.7 hPa | - | 0.45 m/s, 237° | - | - |
| 1778022000 | 10° C | 83% | 1003.7 hPa | - | 0 m/s | - | - |
| 1778021100 | 10° C | 83% | 1003.8 hPa | - | 0.45 m/s, 255° | - | - |
| 1778020202 | 10° C | 84% | 1004 hPa | - | 0.45 m/s, 232° | - | - |
| 1778019300 | 10° C | 84% | 1004 hPa | - | 0 m/s | - | - |
| 1778018400 | 10° C | 84% | 1003.8 hPa | - | 0.45 m/s, 207° | - | - |
| 1778017502 | 10° C | 85% | 1003.9 hPa | - | 0 m/s | - | - |
| 1778016601 | 10° C | 84% | 1004.3 hPa | - | 0.45 m/s, 244° | - | - |
| 1778015702 | 10° C | 84% | 1004.4 hPa | - | 0 m/s | - | - |
| 1778012100 | 10° C | 85% | 1004.6 hPa | - | 0.45 m/s, 255° | - | - |
| 1778011201 | 10° C | 85% | 1004.3 hPa | - | 0.45 m/s, 192° | - | - |
| 1778010300 | 10° C | 85% | 1004.6 hPa | - | 0.89 m/s, 271° | - | - |
| 1778009400 | 10° C | 85% | 1004.5 hPa | - | 0 m/s | - | - |
| 1778004000 | 12.22° C | 83% | 1004 hPa | - | 0.89 m/s, 232° | - | - |
| 1778002200 | 12.22° C | 81% | 1004 hPa | - | 0.45 m/s, 221° | - | - |
| 1778001300 | 12.22° C | 79% | 1004.2 hPa | - | 0.45 m/s, 225° | - | - |
| 1778000400 | 12.22° C | 78% | 1004 hPa | - | 0 m/s | - | - |
| 1777999501 | 12.22° C | 79% | 1004.1 hPa | - | 0 m/s | - | - |
* Rain since midnight (hover to see other rain measurements)
** Current wind speed in m/s (hover to see current wind gust speed)